sensor_id;sensor_type;location;lat;lon;timestamp;temperature;humidity
34279;DHT22;20538;51.528;9.942;2023-07-29T00:02:22;17.80;99.90
34279;DHT22;20538;51.528;9.942;2023-07-29T00:04:47;17.70;99.90
34279;DHT22;20538;51.528;9.942;2023-07-29T00:07:13;17.70;99.90
34279;DHT22;20538;51.528;9.942;2023-07-29T00:09:39;17.60;99.90
34279;DHT22;20538;51.528;9.942;2023-07-29T00:12:07;17.60;99.90
34279;DHT22;20538;51.528;9.942;2023-07-29T00:14:33;17.60;99.90
34279;DHT22;20538;51.528;9.942;2023-07-29T00:16:58;17.50;99.90
34279;DHT22;20538;51.528;9.942;2023-07-29T00:19:24;17.50;99.90
34279;DHT22;20538;51.528;9.942;2023-07-29T00:21:50;17.50;99.90
34279;DHT22;20538;51.528;9.942;2023-07-29T00:24:15;17.50;99.90
34279;DHT22;20538;51.528;9.942;2023-07-29T00:26:41;17.40;99.90
34279;DHT22;20538;51.528;9.942;2023-07-29T00:29:06;17.40;99.90
34279;DHT22;20538;51.528;9.942;2023-07-29T00:31:32;17.40;99.90
34279;DHT22;20538;51.528;9.942;2023-07-29T00:33:58;17.30;99.90
34279;DHT22;20538;51.528;9.942;2023-07-29T00:36:23;17.30;99.90
34279;DHT22;20538;51.528;9.942;2023-07-29T00:38:49;17.30;99.90
34279;DHT22;20538;51.528;9.942;2023-07-29T00:41:15;17.30;99.90
34279;DHT22;20538;51.528;9.942;2023-07-29T00:43:41;17.30;99.90
34279;DHT22;20538;51.528;9.942;2023-07-29T00:46:08;17.30;99.90
34279;DHT22;20538;51.528;9.942;2023-07-29T00:48:34;17.30;99.90
34279;DHT22;20538;51.528;9.942;2023-07-29T00:51:00;17.30;99.90
34279;DHT22;20538;51.528;9.942;2023-07-29T00:53:26;17.30;99.90
34279;DHT22;20538;51.528;9.942;2023-07-29T00:55:51;17.40;99.90
34279;DHT22;20538;51.528;9.942;2023-07-29T00:58:17;17.40;99.90
34279;DHT22;20538;51.528;9.942;2023-07-29T01:00:43;17.50;99.90
34279;DHT22;20538;51.528;9.942;2023-07-29T01:03:09;17.50;99.90
34279;DHT22;20538;51.528;9.942;2023-07-29T01:05:49;17.60;99.90
34279;DHT22;20538;51.528;9.942;2023-07-29T01:08:48;17.60;99.90
34279;DHT22;20538;51.528;9.942;2023-07-29T01:14:10;17.70;99.90
34279;DHT22;20538;51.528;9.942;2023-07-29T01:16:42;17.70;99.90
34279;DHT22;20538;51.528;9.942;2023-07-29T01:19:26;17.70;99.90
34279;DHT22;20538;51.528;9.942;2023-07-29T01:22:00;17.70;99.90
34279;DHT22;20538;51.528;9.942;2023-07-29T01:24:27;17.60;99.90
34279;DHT22;20538;51.528;9.942;2023-07-29T01:26:52;17.60;99.90
34279;DHT22;20538;51.528;9.942;2023-07-29T01:29:18;17.60;99.90
34279;DHT22;20538;51.528;9.942;2023-07-29T01:31:44;17.60;99.90
34279;DHT22;20538;51.528;9.942;2023-07-29T01:34:22;17.60;99.90
34279;DHT22;20538;51.528;9.942;2023-07-29T01:36:51;17.60;99.90
34279;DHT22;20538;51.528;9.942;2023-07-29T01:39:19;17.60;99.90
34279;DHT22;20538;51.528;9.942;2023-07-29T01:41:48;17.70;99.90
34279;DHT22;20538;51.528;9.942;2023-07-29T01:44:14;17.70;99.90
34279;DHT22;20538;51.528;9.942;2023-07-29T01:46:40;17.80;99.90
34279;DHT22;20538;51.528;9.942;2023-07-29T01:49:05;17.80;99.90
34279;DHT22;20538;51.528;9.942;2023-07-29T01:51:31;17.90;99.90
34279;DHT22;20538;51.528;9.942;2023-07-29T01:53:57;17.90;99.90
34279;DHT22;20538;51.528;9.942;2023-07-29T01:56:24;17.90;99.90
34279;DHT22;20538;51.528;9.942;2023-07-29T01:58:49;17.90;99.90
34279;DHT22;20538;51.528;9.942;2023-07-29T02:01:15;17.90;99.90
34279;DHT22;20538;51.528;9.942;2023-07-29T02:03:41;17.90;99.90
34279;DHT22;20538;51.528;9.942;2023-07-29T02:06:06;17.90;99.90
34279;DHT22;20538;51.528;9.942;2023-07-29T02:08:32;18.00;99.90
34279;DHT22;20538;51.528;9.942;2023-07-29T02:10:58;18.00;99.90
34279;DHT22;20538;51.528;9.942;2023-07-29T02:13:23;18.00;99.90
34279;DHT22;20538;51.528;9.942;2023-07-29T02:15:49;18.00;99.90
34279;DHT22;20538;51.528;9.942;2023-07-29T02:18:14;18.00;99.90
34279;DHT22;20538;51.528;9.942;2023-07-29T02:20:40;18.00;99.90
34279;DHT22;20538;51.528;9.942;2023-07-29T02:23:06;18.00;99.90
34279;DHT22;20538;51.528;9.942;2023-07-29T02:25:34;18.00;99.90
34279;DHT22;20538;51.528;9.942;2023-07-29T02:28:00;18.00;99.90
34279;DHT22;20538;51.528;9.942;2023-07-29T02:30:25;18.10;99.90
34279;DHT22;20538;51.528;9.942;2023-07-29T02:32:51;18.10;99.90
34279;DHT22;20538;51.528;9.942;2023-07-29T02:35:17;18.00;99.90
34279;DHT22;20538;51.528;9.942;2023-07-29T02:37:42;18.10;99.90
34279;DHT22;20538;51.528;9.942;2023-07-29T02:40:08;18.10;99.90
34279;DHT22;20538;51.528;9.942;2023-07-29T02:42:34;18.10;99.90
34279;DHT22;20538;51.528;9.942;2023-07-29T02:44:59;18.10;99.90
34279;DHT22;20538;51.528;9.942;2023-07-29T02:47:25;18.10;99.90
34279;DHT22;20538;51.528;9.942;2023-07-29T02:49:51;18.10;99.90
34279;DHT22;20538;51.528;9.942;2023-07-29T02:52:16;18.10;99.90
34279;DHT22;20538;51.528;9.942;2023-07-29T02:54:42;18.00;99.90
34279;DHT22;20538;51.528;9.942;2023-07-29T02:57:07;18.00;99.90
34279;DHT22;20538;51.528;9.942;2023-07-29T02:59:33;17.90;99.90
34279;DHT22;20538;51.528;9.942;2023-07-29T03:01:58;17.90;99.90
34279;DHT22;20538;51.528;9.942;2023-07-29T03:04:24;17.80;99.90
34279;DHT22;20538;51.528;9.942;2023-07-29T03:06:49;17.90;99.90
34279;DHT22;20538;51.528;9.942;2023-07-29T03:09:15;17.90;99.90
34279;DHT22;20538;51.528;9.942;2023-07-29T03:11:41;17.90;99.90
34279;DHT22;20538;51.528;9.942;2023-07-29T03:14:06;17.90;99.90
34279;DHT22;20538;51.528;9.942;2023-07-29T03:16:32;18.00;99.90
34279;DHT22;20538;51.528;9.942;2023-07-29T03:18:57;18.00;99.90
34279;DHT22;20538;51.528;9.942;2023-07-29T03:21:25;18.00;99.90
34279;DHT22;20538;51.528;9.942;2023-07-29T03:23:51;18.00;99.90
34279;DHT22;20538;51.528;9.942;2023-07-29T03:26:17;18.00;99.90
34279;DHT22;20538;51.528;9.942;2023-07-29T03:28:43;18.00;99.90
34279;DHT22;20538;51.528;9.942;2023-07-29T03:31:09;18.00;99.90
34279;DHT22;20538;51.528;9.942;2023-07-29T03:33:35;18.00;99.90
34279;DHT22;20538;51.528;9.942;2023-07-29T03:36:00;17.90;99.90
34279;DHT22;20538;51.528;9.942;2023-07-29T03:38:26;17.90;99.90
34279;DHT22;20538;51.528;9.942;2023-07-29T03:40:53;17.90;99.90
34279;DHT22;20538;51.528;9.942;2023-07-29T03:43:19;17.90;99.90
34279;DHT22;20538;51.528;9.942;2023-07-29T03:45:44;17.90;99.90
34279;DHT22;20538;51.528;9.942;2023-07-29T03:48:10;17.90;99.90
34279;DHT22;20538;51.528;9.942;2023-07-29T03:50:36;18.00;99.90
34279;DHT22;20538;51.528;9.942;2023-07-29T03:53:03;18.00;99.90
34279;DHT22;20538;51.528;9.942;2023-07-29T03:55:29;18.00;99.90
34279;DHT22;20538;51.528;9.942;2023-07-29T03:58:01;18.10;99.90
34279;DHT22;20538;51.528;9.942;2023-07-29T04:00:27;18.10;99.90
34279;DHT22;20538;51.528;9.942;2023-07-29T04:02:53;18.10;99.90
34279;DHT22;20538;51.528;9.942;2023-07-29T04:05:18;18.20;99.90
34279;DHT22;20538;51.528;9.942;2023-07-29T04:07:44;18.20;99.90
34279;DHT22;20538;51.528;9.942;2023-07-29T04:10:10;18.30;99.90
34279;DHT22;20538;51.528;9.942;2023-07-29T04:12:36;18.30;99.90
34279;DHT22;20538;51.528;9.942;2023-07-29T04:15:02;18.30;99.90
34279;DHT22;20538;51.528;9.942;2023-07-29T04:17:27;18.40;99.90
34279;DHT22;20538;51.528;9.942;2023-07-29T04:19:53;18.40;99.90
34279;DHT22;20538;51.528;9.942;2023-07-29T04:22:19;18.40;99.90
34279;DHT22;20538;51.528;9.942;2023-07-29T04:24:44;18.50;99.90
34279;DHT22;20538;51.528;9.942;2023-07-29T04:27:10;18.40;99.90
34279;DHT22;20538;51.528;9.942;2023-07-29T04:29:42;18.40;99.90
34279;DHT22;20538;51.528;9.942;2023-07-29T04:32:08;18.50;99.90
34279;DHT22;20538;51.528;9.942;2023-07-29T04:34:33;18.50;99.90
34279;DHT22;20538;51.528;9.942;2023-07-29T04:36:59;18.50;99.90
34279;DHT22;20538;51.528;9.942;2023-07-29T04:39:24;18.40;99.90
34279;DHT22;20538;51.528;9.942;2023-07-29T04:41:50;18.40;99.90
34279;DHT22;20538;51.528;9.942;2023-07-29T04:44:15;18.30;99.90
34279;DHT22;20538;51.528;9.942;2023-07-29T04:46:41;18.30;99.90
34279;DHT22;20538;51.528;9.942;2023-07-29T04:49:07;18.30;99.90
34279;DHT22;20538;51.528;9.942;2023-07-29T04:51:32;18.20;99.90
34279;DHT22;20538;51.528;9.942;2023-07-29T04:53:58;18.30;99.90
34279;DHT22;20538;51.528;9.942;2023-07-29T04:56:24;18.30;99.90
34279;DHT22;20538;51.528;9.942;2023-07-29T04:58:53;18.30;99.90
34279;DHT22;20538;51.528;9.942;2023-07-29T05:01:23;18.30;99.90
34279;DHT22;20538;51.528;9.942;2023-07-29T05:03:48;18.30;99.90
34279;DHT22;20538;51.528;9.942;2023-07-29T05:06:14;18.30;99.90
34279;DHT22;20538;51.528;9.942;2023-07-29T05:08:39;18.30;99.90
34279;DHT22;20538;51.528;9.942;2023-07-29T05:11:05;18.30;99.90
34279;DHT22;20538;51.528;9.942;2023-07-29T05:13:31;18.30;99.90
34279;DHT22;20538;51.528;9.942;2023-07-29T05:15:56;18.40;99.90
34279;DHT22;20538;51.528;9.942;2023-07-29T05:18:22;18.30;99.90
34279;DHT22;20538;51.528;9.942;2023-07-29T05:20:48;18.30;99.90
34279;DHT22;20538;51.528;9.942;2023-07-29T05:23:14;18.40;99.90
34279;DHT22;20538;51.528;9.942;2023-07-29T05:25:40;18.50;99.90
34279;DHT22;20538;51.528;9.942;2023-07-29T05:28:05;18.50;99.90
34279;DHT22;20538;51.528;9.942;2023-07-29T05:30:32;18.60;99.90
34279;DHT22;20538;51.528;9.942;2023-07-29T05:33:00;18.60;99.90
34279;DHT22;20538;51.528;9.942;2023-07-29T05:35:25;18.70;99.90
34279;DHT22;20538;51.528;9.942;2023-07-29T05:37:51;18.70;99.90
34279;DHT22;20538;51.528;9.942;2023-07-29T05:40:17;18.80;99.90
34279;DHT22;20538;51.528;9.942;2023-07-29T05:42:43;18.90;99.90
34279;DHT22;20538;51.528;9.942;2023-07-29T05:45:10;18.90;99.90
34279;DHT22;20538;51.528;9.942;2023-07-29T05:47:36;18.90;99.90
34279;DHT22;20538;51.528;9.942;2023-07-29T05:50:02;18.90;99.90
34279;DHT22;20538;51.528;9.942;2023-07-29T05:52:30;18.90;99.90
34279;DHT22;20538;51.528;9.942;2023-07-29T05:54:56;18.90;99.90
34279;DHT22;20538;51.528;9.942;2023-07-29T05:57:22;18.90;99.90
34279;DHT22;20538;51.528;9.942;2023-07-29T05:59:48;18.80;99.90
34279;DHT22;20538;51.528;9.942;2023-07-29T06:02:13;18.90;99.90
34279;DHT22;20538;51.528;9.942;2023-07-29T06:04:39;19.00;99.90
34279;DHT22;20538;51.528;9.942;2023-07-29T06:07:05;19.10;99.90
34279;DHT22;20538;51.528;9.942;2023-07-29T06:09:31;19.20;99.90
34279;DHT22;20538;51.528;9.942;2023-07-29T06:11:57;19.20;99.90
34279;DHT22;20538;51.528;9.942;2023-07-29T06:14:29;19.20;99.90
34279;DHT22;20538;51.528;9.942;2023-07-29T06:16:54;19.20;99.90
34279;DHT22;20538;51.528;9.942;2023-07-29T06:19:20;19.10;99.90
34279;DHT22;20538;51.528;9.942;2023-07-29T06:21:46;19.10;99.90
34279;DHT22;20538;51.528;9.942;2023-07-29T06:24:12;19.10;99.90
34279;DHT22;20538;51.528;9.942;2023-07-29T06:26:38;19.00;99.90
34279;DHT22;20538;51.528;9.942;2023-07-29T06:29:03;19.00;99.90
34279;DHT22;20538;51.528;9.942;2023-07-29T06:31:29;19.00;99.90
34279;DHT22;20538;51.528;9.942;2023-07-29T06:33:55;19.10;99.90
34279;DHT22;20538;51.528;9.942;2023-07-29T06:36:21;19.10;99.90
34279;DHT22;20538;51.528;9.942;2023-07-29T06:38:46;19.10;99.90
34279;DHT22;20538;51.528;9.942;2023-07-29T06:41:12;19.10;99.90
34279;DHT22;20538;51.528;9.942;2023-07-29T06:43:38;19.20;99.90
34279;DHT22;20538;51.528;9.942;2023-07-29T06:46:07;19.20;99.90
34279;DHT22;20538;51.528;9.942;2023-07-29T06:48:32;19.30;99.90
34279;DHT22;20538;51.528;9.942;2023-07-29T06:50:58;19.40;99.90
34279;DHT22;20538;51.528;9.942;2023-07-29T06:53:26;19.50;99.90
34279;DHT22;20538;51.528;9.942;2023-07-29T06:55:52;19.70;99.90
34279;DHT22;20538;51.528;9.942;2023-07-29T06:58:18;19.90;99.90
34279;DHT22;20538;51.528;9.942;2023-07-29T07:00:43;20.10;99.90
34279;DHT22;20538;51.528;9.942;2023-07-29T07:03:09;20.50;99.90
34279;DHT22;20538;51.528;9.942;2023-07-29T07:05:35;20.90;99.90
34279;DHT22;20538;51.528;9.942;2023-07-29T07:08:00;21.20;99.90
34279;DHT22;20538;51.528;9.942;2023-07-29T07:10:26;21.30;99.90
34279;DHT22;20538;51.528;9.942;2023-07-29T07:12:52;21.30;99.90
34279;DHT22;20538;51.528;9.942;2023-07-29T07:15:17;21.20;99.90
34279;DHT22;20538;51.528;9.942;2023-07-29T07:17:43;21.10;99.90
34279;DHT22;20538;51.528;9.942;2023-07-29T07:20:09;21.00;99.90
34279;DHT22;20538;51.528;9.942;2023-07-29T07:22:44;21.10;99.90
34279;DHT22;20538;51.528;9.942;2023-07-29T07:25:10;21.00;99.90
34279;DHT22;20538;51.528;9.942;2023-07-29T07:27:36;20.90;99.90
34279;DHT22;20538;51.528;9.942;2023-07-29T07:30:03;21.00;99.90
34279;DHT22;20538;51.528;9.942;2023-07-29T07:32:28;21.00;99.90
34279;DHT22;20538;51.528;9.942;2023-07-29T07:34:54;20.90;99.90
34279;DHT22;20538;51.528;9.942;2023-07-29T07:37:20;21.00;99.90
34279;DHT22;20538;51.528;9.942;2023-07-29T07:39:45;20.80;99.90
34279;DHT22;20538;51.528;9.942;2023-07-29T07:42:11;20.70;99.90
34279;DHT22;20538;51.528;9.942;2023-07-29T07:44:39;20.50;99.90
34279;DHT22;20538;51.528;9.942;2023-07-29T07:47:04;20.60;99.90
34279;DHT22;20538;51.528;9.942;2023-07-29T07:49:30;20.70;99.90
34279;DHT22;20538;51.528;9.942;2023-07-29T07:51:56;21.00;99.90
34279;DHT22;20538;51.528;9.942;2023-07-29T07:54:22;21.20;99.90
34279;DHT22;20538;51.528;9.942;2023-07-29T07:56:47;21.30;99.90
34279;DHT22;20538;51.528;9.942;2023-07-29T07:59:13;21.30;99.90
34279;DHT22;20538;51.528;9.942;2023-07-29T08:01:39;21.30;99.90
34279;DHT22;20538;51.528;9.942;2023-07-29T08:04:05;21.20;99.90
34279;DHT22;20538;51.528;9.942;2023-07-29T08:06:31;21.10;99.90
34279;DHT22;20538;51.528;9.942;2023-07-29T08:08:57;21.00;99.90
34279;DHT22;20538;51.528;9.942;2023-07-29T08:11:23;21.00;99.90
34279;DHT22;20538;51.528;9.942;2023-07-29T08:13:48;21.10;99.90
34279;DHT22;20538;51.528;9.942;2023-07-29T08:16:14;21.10;99.90
34279;DHT22;20538;51.528;9.942;2023-07-29T08:18:40;20.80;99.90
34279;DHT22;20538;51.528;9.942;2023-07-29T08:21:05;20.80;99.90
34279;DHT22;20538;51.528;9.942;2023-07-29T08:23:33;20.70;99.90
34279;DHT22;20538;51.528;9.942;2023-07-29T08:26:01;20.70;99.90
34279;DHT22;20538;51.528;9.942;2023-07-29T08:28:38;20.80;99.90
34279;DHT22;20538;51.528;9.942;2023-07-29T08:31:05;20.90;99.90
34279;DHT22;20538;51.528;9.942;2023-07-29T08:33:31;21.10;99.90
34279;DHT22;20538;51.528;9.942;2023-07-29T08:35:59;21.30;99.90
34279;DHT22;20538;51.528;9.942;2023-07-29T08:38:25;21.30;99.90
34279;DHT22;20538;51.528;9.942;2023-07-29T08:41:10;21.20;99.90
34279;DHT22;20538;51.528;9.942;2023-07-29T08:43:39;21.20;99.90
34279;DHT22;20538;51.528;9.942;2023-07-29T08:46:13;21.40;99.90
34279;DHT22;20538;51.528;9.942;2023-07-29T08:48:58;21.60;99.90
34279;DHT22;20538;51.528;9.942;2023-07-29T08:51:27;21.60;99.90
34279;DHT22;20538;51.528;9.942;2023-07-29T08:53:54;21.70;99.90
34279;DHT22;20538;51.528;9.942;2023-07-29T08:56:20;21.60;99.90
34279;DHT22;20538;51.528;9.942;2023-07-29T08:58:46;21.60;99.90
34279;DHT22;20538;51.528;9.942;2023-07-29T09:01:12;21.50;99.90
34279;DHT22;20538;51.528;9.942;2023-07-29T09:03:40;21.50;99.90
34279;DHT22;20538;51.528;9.942;2023-07-29T09:06:07;21.70;99.90
34279;DHT22;20538;51.528;9.942;2023-07-29T09:08:33;22.00;99.90
34279;DHT22;20538;51.528;9.942;2023-07-29T09:10:59;22.40;99.90
34279;DHT22;20538;51.528;9.942;2023-07-29T09:13:25;22.40;99.90
34279;DHT22;20538;51.528;9.942;2023-07-29T09:15:55;22.50;99.90
34279;DHT22;20538;51.528;9.942;2023-07-29T09:18:21;22.50;99.90
34279;DHT22;20538;51.528;9.942;2023-07-29T09:20:48;22.50;99.90
34279;DHT22;20538;51.528;9.942;2023-07-29T09:23:17;22.70;99.90
34279;DHT22;20538;51.528;9.942;2023-07-29T09:25:42;22.80;99.90
34279;DHT22;20538;51.528;9.942;2023-07-29T09:28:10;22.80;99.90
34279;DHT22;20538;51.528;9.942;2023-07-29T09:30:40;22.80;99.90
34279;DHT22;20538;51.528;9.942;2023-07-29T09:33:07;23.10;99.90
34279;DHT22;20538;51.528;9.942;2023-07-29T09:35:38;23.10;99.90
34279;DHT22;20538;51.528;9.942;2023-07-29T09:38:04;23.30;99.90
34279;DHT22;20538;51.528;9.942;2023-07-29T09:40:38;23.10;99.90
34279;DHT22;20538;51.528;9.942;2023-07-29T09:43:10;23.20;99.90
34279;DHT22;20538;51.528;9.942;2023-07-29T09:45:46;23.20;99.90
34279;DHT22;20538;51.528;9.942;2023-07-29T09:48:24;23.40;99.90
34279;DHT22;20538;51.528;9.942;2023-07-29T09:50:58;23.00;99.90
34279;DHT22;20538;51.528;9.942;2023-07-29T09:53:24;22.60;99.90
34279;DHT22;20538;51.528;9.942;2023-07-29T09:55:50;22.50;99.90
34279;DHT22;20538;51.528;9.942;2023-07-29T09:58:26;23.00;99.90
34279;DHT22;20538;51.528;9.942;2023-07-29T10:00:52;23.10;99.90
34279;DHT22;20538;51.528;9.942;2023-07-29T10:03:21;23.40;99.90
34279;DHT22;20538;51.528;9.942;2023-07-29T10:05:47;23.50;99.90
34279;DHT22;20538;51.528;9.942;2023-07-29T10:08:13;23.90;99.90
34279;DHT22;20538;51.528;9.942;2023-07-29T10:10:42;24.20;99.90
34279;DHT22;20538;51.528;9.942;2023-07-29T10:13:08;24.20;99.90
34279;DHT22;20538;51.528;9.942;2023-07-29T10:15:34;24.10;99.90
34279;DHT22;20538;51.528;9.942;2023-07-29T10:18:02;23.60;99.90
34279;DHT22;20538;51.528;9.942;2023-07-29T10:20:30;23.50;99.90
34279;DHT22;20538;51.528;9.942;2023-07-29T10:22:56;23.20;99.90
34279;DHT22;20538;51.528;9.942;2023-07-29T10:25:30;22.90;99.90
34279;DHT22;20538;51.528;9.942;2023-07-29T10:28:05;22.60;99.90
34279;DHT22;20538;51.528;9.942;2023-07-29T10:30:31;22.70;99.90
34279;DHT22;20538;51.528;9.942;2023-07-29T10:33:05;22.70;99.90
34279;DHT22;20538;51.528;9.942;2023-07-29T10:35:34;22.80;99.90
34279;DHT22;20538;51.528;9.942;2023-07-29T10:38:02;23.00;99.90
34279;DHT22;20538;51.528;9.942;2023-07-29T10:40:53;23.70;99.90
34279;DHT22;20538;51.528;9.942;2023-07-29T10:43:51;24.20;99.90
34279;DHT22;20538;51.528;9.942;2023-07-29T10:46:24;24.30;99.90
34279;DHT22;20538;51.528;9.942;2023-07-29T10:48:56;24.20;99.90
34279;DHT22;20538;51.528;9.942;2023-07-29T10:51:35;24.00;99.90
34279;DHT22;20538;51.528;9.942;2023-07-29T10:54:14;23.90;99.90
34279;DHT22;20538;51.528;9.942;2023-07-29T10:56:43;23.50;99.90
34279;DHT22;20538;51.528;9.942;2023-07-29T11:01:40;23.40;99.90
34279;DHT22;20538;51.528;9.942;2023-07-29T11:04:21;23.70;99.90
34279;DHT22;20538;51.528;9.942;2023-07-29T11:17:49;23.80;99.90
34279;DHT22;20538;51.528;9.942;2023-07-29T11:20:16;24.00;99.90
34279;DHT22;20538;51.528;9.942;2023-07-29T11:22:45;24.30;99.90
34279;DHT22;20538;51.528;9.942;2023-07-29T11:25:13;24.30;99.90
34279;DHT22;20538;51.528;9.942;2023-07-29T11:27:39;24.10;99.90
34279;DHT22;20538;51.528;9.942;2023-07-29T11:30:15;24.00;99.90
34279;DHT22;20538;51.528;9.942;2023-07-29T11:32:43;23.70;99.90
34279;DHT22;20538;51.528;9.942;2023-07-29T11:37:37;23.60;99.90
34279;DHT22;20538;51.528;9.942;2023-07-29T11:40:04;23.70;99.90
34279;DHT22;20538;51.528;9.942;2023-07-29T11:42:34;23.80;99.90
34279;DHT22;20538;51.528;9.942;2023-07-29T11:45:01;23.70;99.90
34279;DHT22;20538;51.528;9.942;2023-07-29T11:47:27;23.70;99.90
34279;DHT22;20538;51.528;9.942;2023-07-29T11:49:53;23.50;99.90
34279;DHT22;20538;51.528;9.942;2023-07-29T11:52:19;23.80;99.90
34279;DHT22;20538;51.528;9.942;2023-07-29T11:54:54;23.70;99.90
34279;DHT22;20538;51.528;9.942;2023-07-29T11:57:23;24.00;99.90
34279;DHT22;20538;51.528;9.942;2023-07-29T11:59:49;24.30;99.90
34279;DHT22;20538;51.528;9.942;2023-07-29T12:02:16;24.20;99.90
34279;DHT22;20538;51.528;9.942;2023-07-29T12:04:44;24.10;99.90
34279;DHT22;20538;51.528;9.942;2023-07-29T12:07:13;24.10;99.90
34279;DHT22;20538;51.528;9.942;2023-07-29T12:09:40;24.20;99.90
34279;DHT22;20538;51.528;9.942;2023-07-29T12:12:07;24.50;99.90
34279;DHT22;20538;51.528;9.942;2023-07-29T12:14:34;24.80;99.90
34279;DHT22;20538;51.528;9.942;2023-07-29T12:17:02;24.50;99.90
34279;DHT22;20538;51.528;9.942;2023-07-29T12:19:35;24.70;99.90
34279;DHT22;20538;51.528;9.942;2023-07-29T12:22:05;24.50;99.90
34279;DHT22;20538;51.528;9.942;2023-07-29T12:24:32;24.60;99.90
34279;DHT22;20538;51.528;9.942;2023-07-29T12:26:58;24.40;99.90
34279;DHT22;20538;51.528;9.942;2023-07-29T12:29:24;24.30;99.90
34279;DHT22;20538;51.528;9.942;2023-07-29T12:32:00;24.00;99.90
34279;DHT22;20538;51.528;9.942;2023-07-29T12:34:27;24.30;99.90
34279;DHT22;20538;51.528;9.942;2023-07-29T12:36:54;24.40;99.90
34279;DHT22;20538;51.528;9.942;2023-07-29T12:39:30;24.30;99.90
34279;DHT22;20538;51.528;9.942;2023-07-29T12:42:00;24.50;99.90
34279;DHT22;20538;51.528;9.942;2023-07-29T12:44:30;24.90;99.90
34279;DHT22;20538;51.528;9.942;2023-07-29T12:46:56;24.80;99.90
34279;DHT22;20538;51.528;9.942;2023-07-29T12:49:22;24.30;99.90
34279;DHT22;20538;51.528;9.942;2023-07-29T12:51:48;24.10;99.90
34279;DHT22;20538;51.528;9.942;2023-07-29T12:54:14;23.90;99.90
34279;DHT22;20538;51.528;9.942;2023-07-29T12:56:39;23.80;99.90
34279;DHT22;20538;51.528;9.942;2023-07-29T12:59:06;23.80;99.90
34279;DHT22;20538;51.528;9.942;2023-07-29T13:01:31;23.90;99.90
34279;DHT22;20538;51.528;9.942;2023-07-29T13:03:57;24.10;99.90
34279;DHT22;20538;51.528;9.942;2023-07-29T13:06:23;24.20;99.00
34279;DHT22;20538;51.528;9.942;2023-07-29T13:08:49;24.20;99.90
34279;DHT22;20538;51.528;9.942;2023-07-29T13:11:16;24.30;99.90
34279;DHT22;20538;51.528;9.942;2023-07-29T13:13:42;24.80;99.90
34279;DHT22;20538;51.528;9.942;2023-07-29T13:16:08;24.90;98.30
34279;DHT22;20538;51.528;9.942;2023-07-29T13:18:37;24.50;97.80
34279;DHT22;20538;51.528;9.942;2023-07-29T13:21:03;24.30;97.70
34279;DHT22;20538;51.528;9.942;2023-07-29T13:23:28;24.30;97.40
34279;DHT22;20538;51.528;9.942;2023-07-29T13:25:55;24.40;96.60
34279;DHT22;20538;51.528;9.942;2023-07-29T13:28:21;24.40;97.60
34279;DHT22;20538;51.528;9.942;2023-07-29T13:30:47;24.40;96.60
34279;DHT22;20538;51.528;9.942;2023-07-29T13:33:12;24.20;96.70
34279;DHT22;20538;51.528;9.942;2023-07-29T13:35:44;24.10;97.10
34279;DHT22;20538;51.528;9.942;2023-07-29T13:38:12;23.90;96.80
34279;DHT22;20538;51.528;9.942;2023-07-29T13:40:37;23.90;97.00
34279;DHT22;20538;51.528;9.942;2023-07-29T13:43:03;24.20;97.00
34279;DHT22;20538;51.528;9.942;2023-07-29T13:45:29;24.50;97.50
34279;DHT22;20538;51.528;9.942;2023-07-29T13:47:55;24.60;97.20
34279;DHT22;20538;51.528;9.942;2023-07-29T13:50:22;24.70;98.30
34279;DHT22;20538;51.528;9.942;2023-07-29T13:52:49;24.90;96.90
34279;DHT22;20538;51.528;9.942;2023-07-29T13:55:14;25.00;97.40
34279;DHT22;20538;51.528;9.942;2023-07-29T13:57:40;24.90;96.90
34279;DHT22;20538;51.528;9.942;2023-07-29T14:00:06;24.90;97.40
34279;DHT22;20538;51.528;9.942;2023-07-29T14:02:33;24.90;96.60
34279;DHT22;20538;51.528;9.942;2023-07-29T14:04:59;24.80;97.10
34279;DHT22;20538;51.528;9.942;2023-07-29T14:07:25;25.00;96.00
34279;DHT22;20538;51.528;9.942;2023-07-29T14:09:50;25.10;96.00
34279;DHT22;20538;51.528;9.942;2023-07-29T14:12:19;25.20;94.90
34279;DHT22;20538;51.528;9.942;2023-07-29T14:14:44;24.80;94.20
34279;DHT22;20538;51.528;9.942;2023-07-29T14:17:10;24.80;93.80
34279;DHT22;20538;51.528;9.942;2023-07-29T14:19:39;25.20;94.10
34279;DHT22;20538;51.528;9.942;2023-07-29T14:22:05;25.10;93.60
34279;DHT22;20538;51.528;9.942;2023-07-29T14:24:31;24.80;93.60
34279;DHT22;20538;51.528;9.942;2023-07-29T14:26:57;24.60;93.70
34279;DHT22;20538;51.528;9.942;2023-07-29T14:29:22;24.70;94.30
34279;DHT22;20538;51.528;9.942;2023-07-29T14:31:48;25.00;93.70
34279;DHT22;20538;51.528;9.942;2023-07-29T14:34:13;25.50;94.50
34279;DHT22;20538;51.528;9.942;2023-07-29T14:36:39;25.40;93.60
34279;DHT22;20538;51.528;9.942;2023-07-29T14:39:04;25.00;93.50
34279;DHT22;20538;51.528;9.942;2023-07-29T14:41:31;24.90;94.10
34279;DHT22;20538;51.528;9.942;2023-07-29T14:43:56;25.00;94.20
34279;DHT22;20538;51.528;9.942;2023-07-29T14:46:22;25.00;93.80
34279;DHT22;20538;51.528;9.942;2023-07-29T14:48:50;25.40;93.90
34279;DHT22;20538;51.528;9.942;2023-07-29T14:51:16;24.90;93.80
34279;DHT22;20538;51.528;9.942;2023-07-29T14:53:41;25.10;93.50
34279;DHT22;20538;51.528;9.942;2023-07-29T14:56:08;25.00;93.90
34279;DHT22;20538;51.528;9.942;2023-07-29T14:58:34;24.80;93.50
34279;DHT22;20538;51.528;9.942;2023-07-29T15:00:59;24.70;93.20
34279;DHT22;20538;51.528;9.942;2023-07-29T15:03:25;25.00;94.50
34279;DHT22;20538;51.528;9.942;2023-07-29T15:05:53;24.90;93.80
34279;DHT22;20538;51.528;9.942;2023-07-29T15:08:18;25.40;94.60
34279;DHT22;20538;51.528;9.942;2023-07-29T15:10:48;25.20;93.60
34279;DHT22;20538;51.528;9.942;2023-07-29T15:13:14;24.90;94.10
34279;DHT22;20538;51.528;9.942;2023-07-29T15:15:41;24.90;94.20
34279;DHT22;20538;51.528;9.942;2023-07-29T15:18:08;24.70;93.80
34279;DHT22;20538;51.528;9.942;2023-07-29T15:20:33;25.00;93.30
34279;DHT22;20538;51.528;9.942;2023-07-29T15:22:59;24.70;92.90
34279;DHT22;20538;51.528;9.942;2023-07-29T15:25:25;24.70;93.40
34279;DHT22;20538;51.528;9.942;2023-07-29T15:27:51;24.90;93.00
34279;DHT22;20538;51.528;9.942;2023-07-29T15:30:17;24.60;93.20
34279;DHT22;20538;51.528;9.942;2023-07-29T15:32:43;24.60;93.30
34279;DHT22;20538;51.528;9.942;2023-07-29T15:35:10;24.50;93.50
34279;DHT22;20538;51.528;9.942;2023-07-29T15:37:35;24.80;93.80
34279;DHT22;20538;51.528;9.942;2023-07-29T15:40:03;25.00;95.00
34279;DHT22;20538;51.528;9.942;2023-07-29T15:42:29;24.90;93.90
34279;DHT22;20538;51.528;9.942;2023-07-29T15:44:55;24.90;93.40
34279;DHT22;20538;51.528;9.942;2023-07-29T15:47:21;25.10;92.70
34279;DHT22;20538;51.528;9.942;2023-07-29T15:49:47;25.10;92.30